Terminal Aerodrome Forecast
Issued by NWS

Home | Current Version | Previous Version | Text Only | Print | Product List | Glossary On
Versions: 1 2 3 4 5 6 7 8 9 10 11 12
000
FTUS45 KLKN 051735
TAFWMC
TAF
KWMC 051735Z 0518/0618 04013G23KT P6SM SCT120 BKN200
     FM052100 14010G20KT P6SM VCTS BKN080CB
     FM060500 35012G22KT P6SM FEW080 BKN150
     FM061200 04012G22KT P6SM SCT150=

USA.gov is the U.S. government's official web portal to all federal, state and local government web resources and services.